Time;durP1;ratioP1;P1;durP2;ratioP2;P2;SDS_P1;SDS_P2;PMS_P1;PMS_P2;Temp;Humidity;BMP_temperature;BMP_pressure;BME280_temperature;BME280_humidity;BME280_pressure;Samples;Min_cycle;Max_cycle;Signal;HPM_P1;HPM_P2
2021/03/02 00:00:38;;;;;;;12.82;6.68;;;;;;;;;;5032951;28;20559;-71
2021/03/02 00:03:06;;;;;;;11.85;7.00;;;;;;;;;;5032373;28;20079;-72
2021/03/02 00:05:33;;;;;;;10.18;5.78;;;;;;;;;;5032381;28;20038;-71
2021/03/02 00:07:59;;;;;;;12.57;5.93;;;;;;;;;;5026345;28;20068;-73
2021/03/02 00:10:26;;;;;;;14.05;6.18;;;;;;;;;;5033802;28;20049;-71
2021/03/02 00:12:52;;;;;;;13.55;6.90;;;;;;;;;;5026340;28;20053;-71
2021/03/02 00:15:18;;;;;;;13.07;6.13;;;;;;;;;;5027415;28;20069;-72
2021/03/02 00:17:47;;;;;;;12.63;6.43;;;;;;;;;;5032999;28;20053;-72
2021/03/02 00:20:14;;;;;;;16.63;7.13;;;;;;;;;;5033899;28;20068;-72
2021/03/02 00:22:58;;;;;;;18.88;9.35;;;;;;;;;;5029981;28;20060;-72
2021/03/02 00:25:27;;;;;;;17.13;8.15;;;;;;;;;;5031906;28;20045;-72
2021/03/02 00:27:54;;;;;;;21.50;8.40;;;;;;;;;;5035046;28;20044;-73
2021/03/02 00:30:20;;;;;;;10.93;5.20;;;;;;;;;;5037528;28;20058;-73
2021/03/02 00:32:47;;;;;;;9.80;4.50;;;;;;;;;;5032275;28;20045;-73
2021/03/02 00:35:13;;;;;;;14.05;5.80;;;;;;;;;;5032040;28;20048;-73
2021/03/02 00:37:39;;;;;;;12.80;5.75;;;;;;;;;;5031977;28;20053;-73
2021/03/02 00:40:08;;;;;;;7.97;4.45;;;;;;;;;;5038016;28;20746;-73
2021/03/02 00:42:34;;;;;;;8.35;4.28;;;;;;;;;;5033362;28;20113;-73
2021/03/02 00:44:59;;;;;;;11.90;6.03;;;;;;;;;;5038762;28;20045;-73
2021/03/02 00:47:25;;;;;;;12.60;6.45;;;;;;;;;;5035696;28;20049;-73
2021/03/02 00:49:51;;;;;;;12.85;6.05;;;;;;;;;;5050563;28;20044;-73
2021/03/02 00:52:18;;;;;;;11.68;6.40;;;;;;;;;;5055514;28;20088;-73
2021/03/02 00:54:44;;;;;;;13.07;6.32;;;;;;;;;;5056704;28;20473;-73
2021/03/02 00:57:10;;;;;;;8.85;4.53;;;;;;;;;;5055270;28;20061;-73
2021/03/02 00:59:36;;;;;;;9.55;4.85;;;;;;;;;;5042704;28;20045;-71
2021/03/02 01:02:03;;;;;;;8.70;4.55;;;;;;;;;;5033824;28;20057;-71
2021/03/02 01:04:29;;;;;;;10.60;4.93;;;;;;;;;;5025997;28;20050;-71
2021/03/02 01:06:55;;;;;;;9.10;4.45;;;;;;;;;;5035288;28;20045;-71
2021/03/02 01:09:21;;;;;;;11.65;4.72;;;;;;;;;;5041245;28;20057;-71
2021/03/02 01:11:47;;;;;;;7.13;3.72;;;;;;;;;;5034434;28;20061;-71
2021/03/02 01:14:14;;;;;;;7.88;4.22;;;;;;;;;;5026273;28;20479;-71
2021/03/02 01:16:40;;;;;;;9.88;4.03;;;;;;;;;;5043015;28;20712;-71
2021/03/02 01:19:06;;;;;;;8.82;5.30;;;;;;;;;;5047925;28;20041;-71
2021/03/02 01:21:32;;;;;;;10.07;4.78;;;;;;;;;;5055585;28;20492;-71
2021/03/02 01:23:58;;;;;;;8.18;3.65;;;;;;;;;;5055987;28;20060;-71
2021/03/02 01:26:24;;;;;;;11.60;4.75;;;;;;;;;;5042341;28;20534;-71
2021/03/02 01:28:50;;;;;;;10.30;4.47;;;;;;;;;;5043129;28;20083;-71
2021/03/02 01:31:17;;;;;;;11.45;5.47;;;;;;;;;;5056033;28;20049;-71
2021/03/02 01:33:43;;;;;;;10.40;4.55;;;;;;;;;;5056195;28;20118;-71
2021/03/02 01:36:09;;;;;;;9.93;4.20;;;;;;;;;;5016793;28;20054;-71
2021/03/02 01:38:36;;;;;;;6.90;3.67;;;;;;;;;;5034882;28;20416;-71
2021/03/02 01:41:02;;;;;;;11.85;4.50;;;;;;;;;;5053778;28;20073;-71
2021/03/02 01:43:27;;;;;;;10.35;4.47;;;;;;;;;;5050209;28;20059;-71
2021/03/02 01:45:54;;;;;;;8.02;4.03;;;;;;;;;;5034938;28;20041;-71
2021/03/02 01:48:20;;;;;;;9.38;5.40;;;;;;;;;;5036111;28;20625;-73
2021/03/02 01:50:46;;;;;;;9.43;5.05;;;;;;;;;;5041563;28;20394;-73
2021/03/02 01:53:12;;;;;;;8.02;4.35;;;;;;;;;;5014819;28;20471;-71
2021/03/02 01:55:38;;;;;;;9.73;4.43;;;;;;;;;;5015200;28;20173;-71
2021/03/02 01:58:07;;;;;;;11.20;4.93;;;;;;;;;;5037001;28;20413;-73
2021/03/02 02:00:34;;;;;;;10.93;4.90;;;;;;;;;;5050277;28;20055;-71
2021/03/02 02:03:17;;;;;;;13.25;5.35;;;;;;;;;;5055024;28;20053;-71
2021/03/02 02:05:47;;;;;;;9.15;4.22;;;;;;;;;;5053161;28;20056;-71
2021/03/02 02:08:15;;;;;;;9.93;4.32;;;;;;;;;;5050843;28;20469;-70
2021/03/02 02:10:50;;;;;;;9.50;4.80;;;;;;;;;;5050760;28;20433;-70
2021/03/02 02:13:22;;;;;;;11.52;4.50;;;;;;;;;;5054758;28;20075;-70
2021/03/02 02:15:48;;;;;;;9.85;4.78;;;;;;;;;;5023381;28;20053;-70
2021/03/02 02:18:17;;;;;;;8.43;4.38;;;;;;;;;;5035023;28;20107;-70
2021/03/02 02:20:48;;;;;;;10.32;4.72;;;;;;;;;;5047319;28;20046;-70
2021/03/02 02:23:28;;;;;;;9.77;4.45;;;;;;;;;;5034193;28;20050;-70
2021/03/02 02:25:57;;;;;;;10.75;5.22;;;;;;;;;;5014548;28;20123;-70
2021/03/02 02:28:25;;;;;;;9.77;5.25;;;;;;;;;;5031952;28;20417;-70
2021/03/02 02:30:54;;;;;;;10.77;5.40;;;;;;;;;;5039322;28;20552;-70
2021/03/02 02:33:21;;;;;;;9.52;4.57;;;;;;;;;;5035752;28;20489;-70
2021/03/02 02:35:48;;;;;;;8.35;5.05;;;;;;;;;;5054086;28;20051;-70
2021/03/02 02:38:15;;;;;;;11.30;4.82;;;;;;;;;;5044690;28;20053;-70
2021/03/02 02:40:42;;;;;;;13.48;5.25;;;;;;;;;;5040560;28;20115;-70
2021/03/02 02:43:08;;;;;;;14.30;6.03;;;;;;;;;;5020711;28;20561;-70
2021/03/02 02:45:36;;;;;;;11.68;6.22;;;;;;;;;;5014106;28;20054;-70
2021/03/02 02:48:03;;;;;;;12.75;6.25;;;;;;;;;;5026989;28;20045;-70
2021/03/02 02:50:30;;;;;;;12.00;5.03;;;;;;;;;;5045142;28;20049;-70
2021/03/02 02:52:56;;;;;;;10.60;4.88;;;;;;;;;;5033732;28;20053;-70
2021/03/02 02:55:30;;;;;;;13.48;6.53;;;;;;;;;;5015072;28;20045;-70
2021/03/02 02:57:56;;;;;;;10.57;5.93;;;;;;;;;;5024916;28;20044;-70
2021/03/02 03:00:23;;;;;;;12.85;5.50;;;;;;;;;;5049946;28;20057;-70
2021/03/02 03:02:51;;;;;;;11.77;4.93;;;;;;;;;;5053967;28;20056;-71
2021/03/02 03:05:19;;;;;;;12.15;6.05;;;;;;;;;;5044795;28;20115;-71
2021/03/02 03:07:48;;;;;;;10.43;5.70;;;;;;;;;;5033623;28;20049;-71
2021/03/02 03:10:14;;;;;;;11.02;4.97;;;;;;;;;;5042991;28;20056;-70
2021/03/02 03:12:43;;;;;;;8.90;4.60;;;;;;;;;;5054044;28;20057;-71
2021/03/02 03:15:11;;;;;;;8.65;4.90;;;;;;;;;;5041318;28;20553;-70
2021/03/02 03:17:40;;;;;;;12.55;6.38;;;;;;;;;;5026680;28;20057;-71
2021/03/02 03:20:10;;;;;;;12.35;5.53;;;;;;;;;;5039559;28;20445;-71
2021/03/02 03:22:36;;;;;;;12.63;5.80;;;;;;;;;;5026399;28;20045;-70
2021/03/02 03:25:04;;;;;;;12.38;6.25;;;;;;;;;;5033788;28;20422;-70
2021/03/02 03:27:31;;;;;;;8.95;5.07;;;;;;;;;;5033848;28;20053;-70
2021/03/02 03:29:57;;;;;;;12.60;5.40;;;;;;;;;;5025553;28;20061;-70
2021/03/02 03:32:24;;;;;;;11.48;5.53;;;;;;;;;;5023627;28;20456;-70
2021/03/02 03:34:51;;;;;;;11.25;5.88;;;;;;;;;;5033239;28;20398;-70
2021/03/02 03:37:18;;;;;;;13.43;5.57;;;;;;;;;;5032821;28;20053;-71
2021/03/02 03:39:44;;;;;;;13.85;5.95;;;;;;;;;;5042047;28;20041;-71
2021/03/02 03:42:10;;;;;;;9.63;4.82;;;;;;;;;;5052930;28;20059;-70
2021/03/02 03:44:36;;;;;;;9.75;5.22;;;;;;;;;;5052929;28;20053;-70
2021/03/02 03:47:03;;;;;;;10.30;5.10;;;;;;;;;;5052422;28;20048;-71
2021/03/02 03:49:29;;;;;;;12.25;5.80;;;;;;;;;;5045163;28;20037;-70
2021/03/02 03:51:56;;;;;;;12.93;5.88;;;;;;;;;;5033894;28;20053;-70
2021/03/02 03:54:25;;;;;;;11.02;5.20;;;;;;;;;;5029046;28;20050;-71
2021/03/02 03:56:52;;;;;;;11.93;5.50;;;;;;;;;;5012424;28;20235;-71
2021/03/02 03:59:19;;;;;;;13.25;6.63;;;;;;;;;;5037419;28;20060;-70
2021/03/02 04:01:46;;;;;;;12.85;6.65;;;;;;;;;;5032292;28;20049;-70
2021/03/02 04:04:12;;;;;;;13.75;6.25;;;;;;;;;;5032557;28;20111;-70
2021/03/02 04:06:38;;;;;;;11.25;6.03;;;;;;;;;;5032401;28;20053;-71
2021/03/02 04:09:05;;;;;;;11.15;5.70;;;;;;;;;;5041726;28;20042;-71
2021/03/02 04:11:34;;;;;;;14.63;6.22;;;;;;;;;;5022567;28;20053;-70
2021/03/02 04:14:00;;;;;;;13.57;6.05;;;;;;;;;;5012813;28;20057;-70
2021/03/02 04:16:26;;;;;;;14.82;6.90;;;;;;;;;;5013437;28;20371;-70
2021/03/02 04:18:52;;;;;;;10.38;5.68;;;;;;;;;;5032344;28;20061;-71
2021/03/02 04:21:18;;;;;;;10.98;6.63;;;;;;;;;;5028537;28;20061;-70
2021/03/02 04:23:46;;;;;;;9.52;5.88;;;;;;;;;;5012555;28;20089;-70
2021/03/02 04:26:12;;;;;;;12.10;6.45;;;;;;;;;;5012470;28;20401;-70
2021/03/02 04:28:38;;;;;;;13.50;6.85;;;;;;;;;;5032093;28;20061;-70
2021/03/02 04:31:04;;;;;;;13.95;6.50;;;;;;;;;;5050188;28;20108;-71
2021/03/02 04:33:30;;;;;;;12.25;6.38;;;;;;;;;;5052615;28;20044;-71
2021/03/02 04:35:56;;;;;;;13.05;6.80;;;;;;;;;;5052627;28;20049;-70
2021/03/02 04:38:22;;;;;;;12.80;6.32;;;;;;;;;;5045723;28;20048;-70
2021/03/02 04:40:48;;;;;;;12.05;6.43;;;;;;;;;;5034933;28;20049;-71
2021/03/02 04:43:14;;;;;;;15.02;7.30;;;;;;;;;;5032561;28;20057;-71
2021/03/02 04:45:41;;;;;;;14.35;6.75;;;;;;;;;;5030914;28;20057;-71
2021/03/02 04:48:08;;;;;;;17.27;7.35;;;;;;;;;;5026885;28;20064;-71
2021/03/02 04:50:34;;;;;;;14.00;7.18;;;;;;;;;;5047612;28;20045;-70
2021/03/02 04:53:00;;;;;;;13.95;6.95;;;;;;;;;;5030925;28;20409;-70
2021/03/02 04:55:26;;;;;;;15.82;7.95;;;;;;;;;;5032020;28;20049;-70
2021/03/02 04:57:51;;;;;;;16.60;7.72;;;;;;;;;;5035284;28;20053;-70
2021/03/02 05:00:18;;;;;;;16.50;8.13;;;;;;;;;;5035290;28;20083;-70
2021/03/02 05:02:45;;;;;;;18.00;8.73;;;;;;;;;;5019267;28;20045;-70
2021/03/02 05:05:12;;;;;;;15.40;7.97;;;;;;;;;;5032056;28;20058;-70
2021/03/02 05:07:38;;;;;;;14.93;7.57;;;;;;;;;;5032784;28;20596;-70
2021/03/02 05:10:05;;;;;;;15.95;7.80;;;;;;;;;;5041322;28;20134;-70
2021/03/02 05:12:31;;;;;;;14.13;6.72;;;;;;;;;;5013388;28;20056;-70
2021/03/02 05:14:57;;;;;;;22.63;11.02;;;;;;;;;;5012036;28;20050;-70
2021/03/02 05:17:24;;;;;;;24.63;10.82;;;;;;;;;;5013968;28;21016;-70
2021/03/02 05:19:50;;;;;;;22.00;9.15;;;;;;;;;;5030637;28;20052;-70
2021/03/02 05:22:16;;;;;;;16.05;8.40;;;;;;;;;;5039765;28;20053;-70
2021/03/02 05:24:42;;;;;;;16.70;8.43;;;;;;;;;;5031144;28;20444;-70
2021/03/02 05:27:08;;;;;;;15.68;7.60;;;;;;;;;;5031719;28;20065;-71
2021/03/02 05:29:34;;;;;;;16.27;7.45;;;;;;;;;;5041590;28;20072;-71
2021/03/02 05:32:00;;;;;;;13.50;7.32;;;;;;;;;;5035465;28;20053;-70
2021/03/02 05:34:26;;;;;;;17.13;7.80;;;;;;;;;;5035090;28;20056;-70
2021/03/02 05:36:53;;;;;;;16.75;7.57;;;;;;;;;;5034295;28;20045;-71
2021/03/02 05:39:19;;;;;;;17.85;8.35;;;;;;;;;;5036974;28;20068;-71
2021/03/02 05:41:45;;;;;;;19.08;8.63;;;;;;;;;;5034780;28;20053;-71
2021/03/02 05:44:12;;;;;;;13.93;7.13;;;;;;;;;;5034721;28;20060;-71
2021/03/02 05:46:40;;;;;;;17.63;8.68;;;;;;;;;;5035051;28;20478;-71
2021/03/02 05:49:06;;;;;;;16.75;7.15;;;;;;;;;;5037641;28;20544;-71
2021/03/02 05:51:33;;;;;;;20.55;9.60;;;;;;;;;;5042561;28;20056;-71
2021/03/02 05:54:00;;;;;;;16.58;8.70;;;;;;;;;;5035000;28;20111;-71
2021/03/02 05:56:26;;;;;;;20.48;8.93;;;;;;;;;;5030582;28;20038;-71
2021/03/02 05:58:52;;;;;;;17.55;8.88;;;;;;;;;;5040408;28;20060;-71
2021/03/02 06:01:18;;;;;;;18.25;8.02;;;;;;;;;;5055138;28;20052;-71
2021/03/02 06:03:44;;;;;;;15.23;8.13;;;;;;;;;;5055348;28;20053;-71
2021/03/02 06:06:11;;;;;;;14.63;7.05;;;;;;;;;;5047928;28;20614;-71
2021/03/02 06:08:37;;;;;;;17.70;8.38;;;;;;;;;;5039458;28;20414;-71
2021/03/02 06:11:27;;;;;;;19.52;9.80;;;;;;;;;;5038200;28;20057;-70
2021/03/02 06:13:53;;;;;;;18.58;8.77;;;;;;;;;;5025848;28;20583;-70
2021/03/02 06:16:19;;;;;;;23.48;12.23;;;;;;;;;;5034832;28;20050;-71
2021/03/02 06:18:53;;;;;;;21.33;10.98;;;;;;;;;;5032609;28;20188;-70
2021/03/02 06:21:20;;;;;;;19.63;9.82;;;;;;;;;;5034809;28;20060;-70
2021/03/02 06:23:48;;;;;;;21.15;8.43;;;;;;;;;;5040345;28;20053;-70
2021/03/02 06:26:24;;;;;;;18.38;9.30;;;;;;;;;;5034088;28;20049;-70
2021/03/02 06:28:53;;;;;;;21.85;8.90;;;;;;;;;;5035035;28;20128;-70
2021/03/02 06:31:33;;;;;;;19.55;9.60;;;;;;;;;;5041116;28;20116;-70
2021/03/02 06:34:08;;;;;;;25.23;9.90;;;;;;;;;;5034232;28;20481;-70
2021/03/02 06:36:34;;;;;;;17.08;8.80;;;;;;;;;;5033588;28;20056;-70
2021/03/02 06:39:21;;;;;;;17.15;8.77;;;;;;;;;;5036419;28;20053;-70
2021/03/02 06:41:47;;;;;;;15.95;8.52;;;;;;;;;;5023836;28;20641;-70
2021/03/02 06:44:15;;;;;;;23.23;10.38;;;;;;;;;;5033480;28;20094;-71
2021/03/02 06:46:41;;;;;;;19.63;9.80;;;;;;;;;;5029746;28;20057;-71
2021/03/02 06:49:07;;;;;;;20.17;10.20;;;;;;;;;;5037697;28;20045;-72
2021/03/02 06:51:36;;;;;;;20.77;10.20;;;;;;;;;;5026542;28;20068;-72
2021/03/02 06:54:04;;;;;;;17.75;9.30;;;;;;;;;;5034062;28;20049;-71
2021/03/02 06:56:30;;;;;;;21.83;10.00;;;;;;;;;;5031858;28;20099;-71
2021/03/02 06:59:10;;;;;;;23.08;9.82;;;;;;;;;;5037282;28;20049;-72
2021/03/02 07:01:37;;;;;;;18.38;9.85;;;;;;;;;;5026295;28;20052;-71
2021/03/02 07:04:09;;;;;;;20.85;10.10;;;;;;;;;;5032293;28;20045;-70
2021/03/02 07:06:36;;;;;;;16.23;9.23;;;;;;;;;;5025355;28;20137;-71
2021/03/02 07:09:03;;;;;;;18.92;8.68;;;;;;;;;;5041827;28;20103;-71
2021/03/02 07:11:29;;;;;;;19.75;9.85;;;;;;;;;;5052705;28;20048;-71
2021/03/02 07:13:55;;;;;;;20.83;9.55;;;;;;;;;;5053245;28;20052;-71
2021/03/02 07:16:21;;;;;;;17.30;9.68;;;;;;;;;;5040279;28;20115;-71
2021/03/02 07:18:50;;;;;;;17.25;8.88;;;;;;;;;;5033413;28;20052;-71
2021/03/02 07:21:16;;;;;;;18.08;8.77;;;;;;;;;;5029075;28;20058;-72
2021/03/02 07:23:43;;;;;;;18.45;9.35;;;;;;;;;;5039513;28;20057;-71
2021/03/02 07:26:11;;;;;;;21.67;9.43;;;;;;;;;;5027722;28;20498;-70
2021/03/02 07:28:38;;;;;;;16.67;8.95;;;;;;;;;;5044971;28;20057;-70
2021/03/02 07:31:04;;;;;;;17.73;10.10;;;;;;;;;;5019732;28;20042;-71
2021/03/02 07:33:31;;;;;;;18.75;10.45;;;;;;;;;;5032730;28;20056;-71
2021/03/02 07:35:58;;;;;;;16.27;8.85;;;;;;;;;;5022809;28;20448;-72
2021/03/02 07:38:24;;;;;;;18.73;11.48;;;;;;;;;;5036895;28;20072;-70
2021/03/02 07:40:52;;;;;;;19.05;12.48;;;;;;;;;;5036278;28;20049;-73
2021/03/02 07:43:32;;;;;;;24.75;13.40;;;;;;;;;;5032485;28;20064;-71
2021/03/02 07:46:00;;;;;;;27.83;13.43;;;;;;;;;;5032892;28;20045;-72
2021/03/02 07:48:27;;;;;;;25.90;14.80;;;;;;;;;;5039174;28;20072;-74
2021/03/02 07:51:22;;;;;;;22.92;13.60;;;;;;;;;;5033246;28;20081;-72
2021/03/02 07:53:49;;;;;;;27.48;14.05;;;;;;;;;;4982599;28;20429;-72
2021/03/02 07:56:21;;;;;;;27.77;14.57;;;;;;;;;;5012892;28;20042;-72
2021/03/02 07:59:16;;;;;;;30.98;17.60;;;;;;;;;;5011566;28;549373;-73
2021/03/02 08:01:42;;;;;;;35.50;19.10;;;;;;;;;;5039307;28;20084;-71
2021/03/02 08:04:26;;;;;;;31.40;17.80;;;;;;;;;;5026992;28;20100;-71
2021/03/02 08:06:55;;;;;;;23.63;14.65;;;;;;;;;;5031471;28;20046;-71
2021/03/02 08:09:27;;;;;;;21.75;13.43;;;;;;;;;;5043793;28;20098;-71
2021/03/02 08:11:54;;;;;;;27.42;14.98;;;;;;;;;;5030151;28;20643;-72
2021/03/02 08:14:29;;;;;;;27.42;15.50;;;;;;;;;;5031300;28;20527;-72
2021/03/02 08:16:58;;;;;;;24.42;13.38;;;;;;;;;;5032427;28;20049;-72
2021/03/02 08:19:41;;;;;;;20.83;13.32;;;;;;;;;;5040531;28;20132;-72
2021/03/02 08:22:48;;;;;;;24.30;13.98;;;;;;;;;;5022912;28;20525;-72
2021/03/02 08:25:24;;;;;;;20.30;12.95;;;;;;;;;;5028883;28;20846;-72
2021/03/02 08:27:52;;;;;;;19.20;12.52;;;;;;;;;;5034393;28;20045;-72
2021/03/02 08:30:20;;;;;;;21.80;13.80;;;;;;;;;;5032016;28;20751;-72
2021/03/02 08:32:46;;;;;;;23.08;13.95;;;;;;;;;;5025344;28;20509;-72
2021/03/02 08:35:15;;;;;;;23.00;13.25;;;;;;;;;;5030937;28;20046;-72
2021/03/02 08:37:42;;;;;;;19.65;12.65;;;;;;;;;;5032705;28;20470;-72
2021/03/02 08:40:10;;;;;;;19.23;13.45;;;;;;;;;;5035829;28;20057;-72
2021/03/02 08:42:37;;;;;;;19.70;12.98;;;;;;;;;;5028179;28;20050;-72
2021/03/02 08:45:05;;;;;;;18.15;11.68;;;;;;;;;;5027655;28;20459;-73
2021/03/02 08:47:31;;;;;;;16.88;11.80;;;;;;;;;;5030599;28;20053;-72
2021/03/02 08:49:57;;;;;;;17.73;12.77;;;;;;;;;;5032235;28;20077;-71
2021/03/02 08:52:35;;;;;;;20.58;12.18;;;;;;;;;;5031596;28;20045;-73
2021/03/02 08:55:02;;;;;;;17.95;12.27;;;;;;;;;;5028402;28;20053;-71
2021/03/02 08:57:29;;;;;;;19.05;12.63;;;;;;;;;;5032397;28;20057;-71
2021/03/02 08:59:55;;;;;;;15.90;11.38;;;;;;;;;;5036832;28;20060;-72
2021/03/02 09:02:21;;;;;;;19.52;13.40;;;;;;;;;;5030576;28;20402;-72
2021/03/02 09:04:47;;;;;;;18.10;12.02;;;;;;;;;;5032850;28;20049;-72
2021/03/02 09:07:22;;;;;;;18.23;12.35;;;;;;;;;;5032711;28;20447;-72
2021/03/02 09:09:48;;;;;;;30.17;18.58;;;;;;;;;;5039385;28;20132;-72
2021/03/02 09:12:13;;;;;;;37.60;23.48;;;;;;;;;;5036127;28;20046;-72
2021/03/02 09:14:41;;;;;;;47.17;30.88;;;;;;;;;;5033286;28;20394;-72
2021/03/02 09:17:07;;;;;;;36.67;25.00;;;;;;;;;;5035470;28;20052;-72
2021/03/02 09:19:34;;;;;;;20.90;13.77;;;;;;;;;;5037978;28;20061;-74
2021/03/02 09:22:02;;;;;;;26.98;15.35;;;;;;;;;;5026460;28;20065;-75
2021/03/02 09:24:29;;;;;;;23.25;14.75;;;;;;;;;;5034346;28;20048;-72
2021/03/02 09:26:58;;;;;;;23.75;16.13;;;;;;;;;;5036058;28;20091;-74
2021/03/02 09:29:25;;;;;;;22.90;16.30;;;;;;;;;;5037352;28;20055;-74
2021/03/02 09:31:58;;;;;;;22.90;14.23;;;;;;;;;;5032420;28;20084;-72
2021/03/02 09:34:35;;;;;;;17.17;12.57;;;;;;;;;;5034449;28;20061;-73
2021/03/02 09:37:08;;;;;;;18.52;12.85;;;;;;;;;;5027756;28;20045;-74
2021/03/02 09:39:36;;;;;;;15.65;11.65;;;;;;;;;;5040613;28;20049;-75
2021/03/02 09:42:17;;;;;;;14.07;11.20;;;;;;;;;;5035958;28;20501;-75
2021/03/02 09:44:47;;;;;;;16.48;11.07;;;;;;;;;;5031742;28;20449;-75
2021/03/02 09:47:18;;;;;;;16.63;11.40;;;;;;;;;;5035142;28;20662;-74
2021/03/02 09:49:46;;;;;;;15.38;12.13;;;;;;;;;;5032027;28;20056;-73
2021/03/02 09:52:26;;;;;;;15.20;10.80;;;;;;;;;;5036478;28;20053;-73
2021/03/02 09:55:20;;;;;;;14.25;11.20;;;;;;;;;;5030342;28;20496;-73
2021/03/02 09:58:08;;;;;;;18.38;10.73;;;;;;;;;;5036077;28;20448;-74
2021/03/02 10:00:36;;;;;;;15.40;10.85;;;;;;;;;;5036600;28;20050;-74
2021/03/02 10:03:07;;;;;;;13.80;9.93;;;;;;;;;;5035197;28;20052;-74
2021/03/02 10:05:43;;;;;;;15.93;10.32;;;;;;;;;;5033373;28;20394;-73
2021/03/02 10:08:26;;;;;;;14.70;11.20;;;;;;;;;;5033586;28;20045;-71
2021/03/02 10:10:54;;;;;;;17.10;10.32;;;;;;;;;;5037321;28;20041;-72
2021/03/02 10:13:25;;;;;;;14.15;10.05;;;;;;;;;;5034843;28;20080;-72
2021/03/02 10:15:51;;;;;;;14.80;9.65;;;;;;;;;;5026824;28;20045;-72
2021/03/02 10:18:27;;;;;;;15.23;10.40;;;;;;;;;;5029611;28;20049;-72
2021/03/02 10:21:03;;;;;;;13.07;10.60;;;;;;;;;;5033748;28;20057;-75
2021/03/02 10:23:30;;;;;;;15.13;11.02;;;;;;;;;;5025225;28;20152;-72
2021/03/02 10:25:57;;;;;;;14.80;11.07;;;;;;;;;;5032648;28;20045;-75
2021/03/02 10:28:29;;;;;;;14.98;11.70;;;;;;;;;;5033087;28;20064;-72
2021/03/02 10:30:55;;;;;;;16.33;12.38;;;;;;;;;;5035685;28;20061;-73
2021/03/02 10:33:21;;;;;;;18.55;11.68;;;;;;;;;;5033376;28;20053;-74
2021/03/02 10:35:49;;;;;;;16.15;11.32;;;;;;;;;;5034190;28;20132;-74
2021/03/02 10:38:15;;;;;;;17.65;11.90;;;;;;;;;;5032917;28;20054;-74
2021/03/02 10:40:44;;;;;;;15.40;11.88;;;;;;;;;;5035730;28;20145;-74
2021/03/02 10:43:10;;;;;;;16.48;12.60;;;;;;;;;;5033007;28;20077;-74
2021/03/02 10:45:36;;;;;;;17.88;13.35;;;;;;;;;;5037868;28;20061;-75
2021/03/02 10:48:03;;;;;;;17.77;13.70;;;;;;;;;;5034642;28;20056;-73
2021/03/02 10:50:29;;;;;;;19.00;13.77;;;;;;;;;;5034454;28;20048;-73
2021/03/02 10:52:56;;;;;;;15.48;12.23;;;;;;;;;;5032360;28;20378;-75
2021/03/02 10:55:22;;;;;;;15.75;12.27;;;;;;;;;;5034113;28;20061;-73
2021/03/02 10:57:49;;;;;;;20.00;13.07;;;;;;;;;;5036288;28;20056;-73
2021/03/02 11:00:17;;;;;;;18.48;13.20;;;;;;;;;;5037804;28;20099;-73
2021/03/02 11:02:43;;;;;;;16.50;13.55;;;;;;;;;;5034941;28;20604;-74
2021/03/02 11:05:11;;;;;;;18.05;14.02;;;;;;;;;;5034347;28;20057;-73
2021/03/02 11:07:37;;;;;;;18.00;13.38;;;;;;;;;;5031795;28;20056;-73
2021/03/02 11:10:04;;;;;;;17.25;13.40;;;;;;;;;;5036702;28;20486;-75
2021/03/02 11:12:30;;;;;;;15.38;12.68;;;;;;;;;;5034468;28;20041;-75
2021/03/02 11:14:57;;;;;;;16.92;13.48;;;;;;;;;;5035695;28;20063;-75
2021/03/02 11:17:23;;;;;;;15.27;13.05;;;;;;;;;;5028613;28;20543;-73
2021/03/02 11:19:49;;;;;;;19.45;13.65;;;;;;;;;;5035078;28;20085;-74
2021/03/02 11:22:15;;;;;;;16.42;13.48;;;;;;;;;;5030805;28;20543;-73
2021/03/02 11:24:41;;;;;;;16.90;14.00;;;;;;;;;;5029246;28;20120;-73
2021/03/02 11:27:08;;;;;;;16.63;13.40;;;;;;;;;;5021621;28;20064;-73
2021/03/02 11:29:36;;;;;;;17.92;13.77;;;;;;;;;;5032750;28;20045;-73
2021/03/02 11:32:03;;;;;;;17.25;13.88;;;;;;;;;;5033870;28;20402;-74
2021/03/02 11:34:28;;;;;;;17.45;14.43;;;;;;;;;;5034178;28;20046;-74
2021/03/02 11:36:55;;;;;;;20.65;14.02;;;;;;;;;;5033467;28;20048;-75
2021/03/02 11:39:21;;;;;;;16.38;13.05;;;;;;;;;;5037981;28;20049;-75
2021/03/02 11:41:47;;;;;;;17.75;13.73;;;;;;;;;;5031426;28;20051;-75
2021/03/02 11:44:14;;;;;;;16.60;13.85;;;;;;;;;;5029711;28;20565;-73
2021/03/02 11:46:40;;;;;;;15.52;13.40;;;;;;;;;;5033022;28;20037;-73
2021/03/02 11:49:06;;;;;;;16.35;13.20;;;;;;;;;;5036049;28;20478;-73
2021/03/02 11:51:32;;;;;;;21.08;14.10;;;;;;;;;;5033956;28;20051;-74
2021/03/02 11:53:58;;;;;;;17.73;12.98;;;;;;;;;;5032478;28;20089;-72
2021/03/02 11:56:23;;;;;;;15.70;12.23;;;;;;;;;;5033583;28;20088;-74
2021/03/02 11:58:50;;;;;;;18.70;13.13;;;;;;;;;;5031535;28;20075;-72
2021/03/02 12:01:16;;;;;;;17.00;12.98;;;;;;;;;;5029762;28;20050;-75
2021/03/02 12:03:43;;;;;;;14.95;12.65;;;;;;;;;;5032397;28;20056;-74
2021/03/02 12:06:09;;;;;;;17.48;13.13;;;;;;;;;;5029206;28;20124;-73
2021/03/02 12:08:35;;;;;;;18.00;14.57;;;;;;;;;;5033384;28;20465;-74
2021/03/02 12:11:01;;;;;;;14.98;13.10;;;;;;;;;;5029972;28;20046;-74
2021/03/02 12:13:27;;;;;;;16.00;13.50;;;;;;;;;;5032576;28;20064;-73
2021/03/02 12:15:55;;;;;;;17.50;12.95;;;;;;;;;;5027284;28;20048;-74
2021/03/02 12:18:22;;;;;;;14.65;12.20;;;;;;;;;;5038053;28;20064;-72
2021/03/02 12:20:48;;;;;;;15.65;13.40;;;;;;;;;;5050158;28;20051;-72
2021/03/02 12:23:14;;;;;;;17.65;13.70;;;;;;;;;;5036435;28;20045;-74
2021/03/02 12:25:40;;;;;;;17.27;14.25;;;;;;;;;;5033186;28;20036;-73
2021/03/02 12:28:06;;;;;;;14.82;13.23;;;;;;;;;;5032888;28;20474;-73
2021/03/02 12:30:32;;;;;;;15.60;13.50;;;;;;;;;;5034312;28;20055;-73
2021/03/02 12:33:00;;;;;;;16.92;14.95;;;;;;;;;;5031068;28;20060;-73
2021/03/02 12:35:27;;;;;;;18.35;14.48;;;;;;;;;;5031448;28;20049;-73
2021/03/02 12:37:53;;;;;;;18.63;14.80;;;;;;;;;;5031704;28;20056;-74
2021/03/02 12:40:19;;;;;;;18.65;13.75;;;;;;;;;;5032626;28;20381;-72
2021/03/02 12:42:45;;;;;;;18.70;15.43;;;;;;;;;;5030227;28;20517;-72
2021/03/02 12:45:13;;;;;;;19.77;14.38;;;;;;;;;;5030266;28;20057;-73
2021/03/02 12:47:39;;;;;;;16.63;14.68;;;;;;;;;;5030045;28;20462;-73
2021/03/02 12:50:08;;;;;;;17.13;14.63;;;;;;;;;;5035322;28;20074;-72
2021/03/02 12:52:35;;;;;;;16.35;13.73;;;;;;;;;;5033702;28;20064;-72
2021/03/02 12:55:01;;;;;;;18.42;14.98;;;;;;;;;;5027930;28;20049;-72
2021/03/02 12:57:27;;;;;;;17.88;14.50;;;;;;;;;;5028940;28;20045;-72
2021/03/02 12:59:53;;;;;;;18.50;15.25;;;;;;;;;;5031888;28;20048;-72
2021/03/02 13:02:20;;;;;;;17.15;14.45;;;;;;;;;;5022036;28;20564;-73
2021/03/02 13:04:47;;;;;;;17.65;14.13;;;;;;;;;;5030832;28;20421;-72
2021/03/02 13:07:16;;;;;;;16.85;13.30;;;;;;;;;;5031270;28;20061;-72
2021/03/02 13:09:43;;;;;;;17.05;14.15;;;;;;;;;;5036267;28;20064;-73
2021/03/02 13:12:09;;;;;;;16.63;14.25;;;;;;;;;;5025807;28;20134;-72
2021/03/02 13:14:36;;;;;;;19.92;14.88;;;;;;;;;;5031540;28;20049;-73
2021/03/02 13:17:02;;;;;;;18.67;15.48;;;;;;;;;;5029435;28;20540;-73
2021/03/02 13:19:28;;;;;;;17.85;14.05;;;;;;;;;;5033139;28;20086;-72
2021/03/02 13:21:54;;;;;;;15.35;13.63;;;;;;;;;;5029056;28;20045;-72
2021/03/02 13:24:20;;;;;;;18.00;15.30;;;;;;;;;;5029696;28;20041;-73
2021/03/02 13:26:49;;;;;;;16.92;14.88;;;;;;;;;;5018556;28;20561;-72
2021/03/02 13:29:15;;;;;;;16.88;14.73;;;;;;;;;;5029233;28;20142;-72
2021/03/02 13:31:45;;;;;;;16.40;14.40;;;;;;;;;;5017619;28;20053;-72
2021/03/02 13:34:13;;;;;;;16.42;14.45;;;;;;;;;;5011595;28;20049;-72
2021/03/02 13:36:40;;;;;;;17.60;13.80;;;;;;;;;;5018375;28;20045;-74
2021/03/02 13:39:06;;;;;;;19.85;15.13;;;;;;;;;;5030898;28;20064;-73
2021/03/02 13:41:34;;;;;;;16.25;13.80;;;;;;;;;;5029591;28;20536;-73
2021/03/02 13:44:02;;;;;;;18.05;15.32;;;;;;;;;;5026522;28;20046;-73
2021/03/02 13:46:28;;;;;;;19.25;14.50;;;;;;;;;;5021986;28;20053;-74
2021/03/02 13:48:54;;;;;;;19.10;15.13;;;;;;;;;;5031501;28;20048;-73
2021/03/02 13:51:22;;;;;;;16.42;14.50;;;;;;;;;;5037581;28;20136;-74
2021/03/02 13:53:48;;;;;;;18.60;14.35;;;;;;;;;;5032100;28;20474;-74
2021/03/02 13:56:14;;;;;;;16.25;14.52;;;;;;;;;;5036433;28;20049;-74
2021/03/02 13:58:41;;;;;;;16.25;14.57;;;;;;;;;;5038575;28;20049;-76
2021/03/02 14:01:08;;;;;;;18.50;14.93;;;;;;;;;;5035677;28;20089;-73
2021/03/02 14:03:36;;;;;;;20.10;14.93;;;;;;;;;;5030421;28;20544;-72
2021/03/02 14:06:03;;;;;;;17.35;13.85;;;;;;;;;;5034818;28;20041;-76
2021/03/02 14:08:29;;;;;;;15.82;14.13;;;;;;;;;;5035474;28;20132;-76
2021/03/02 14:10:55;;;;;;;16.48;14.00;;;;;;;;;;5040048;28;20667;-74
2021/03/02 14:13:25;;;;;;;16.83;14.75;;;;;;;;;;5022028;28;20053;-73
2021/03/02 14:15:52;;;;;;;18.05;14.68;;;;;;;;;;5024243;28;20046;-74
2021/03/02 14:18:21;;;;;;;17.17;14.48;;;;;;;;;;5032801;28;20059;-74
2021/03/02 14:20:47;;;;;;;18.80;14.13;;;;;;;;;;5052562;28;20639;-75
2021/03/02 14:23:14;;;;;;;15.75;13.18;;;;;;;;;;5027699;28;20085;-74
2021/03/02 14:25:40;;;;;;;15.23;13.18;;;;;;;;;;5018093;28;20041;-75
2021/03/02 14:28:06;;;;;;;16.10;13.57;;;;;;;;;;5038232;28;20064;-74